createdAt,value
2018-06-09T00:01:51.984Z,100437.33
2018-06-09T00:04:25.395Z,100437.23
2018-06-09T00:06:58.782Z,100442.98
2018-06-09T00:09:32.232Z,100442.41
2018-06-09T00:12:05.669Z,100442.98
2018-06-09T00:14:39.053Z,100446.87
2018-06-09T00:17:12.464Z,100451.13
2018-06-09T00:19:45.849Z,100450.37
2018-06-09T00:22:19.261Z,100450.83
2018-06-09T00:24:52.665Z,100442.59
2018-06-09T00:27:26.055Z,100446.87
2018-06-09T00:29:59.433Z,100449.72
2018-06-09T00:32:32.824Z,100446.13
2018-06-09T00:35:06.238Z,100450.77
2018-06-09T00:37:39.643Z,100452.23
2018-06-09T00:40:13.028Z,100447.96
2018-06-09T00:42:46.420Z,100449.25
2018-06-09T00:45:19.812Z,100448.89
2018-06-09T00:47:53.199Z,100451.30
2018-06-09T00:50:26.703Z,100450.37
2018-06-09T00:53:00.079Z,100457.89
2018-06-09T00:55:33.475Z,100450.19
2018-06-09T00:58:06.870Z,100457.78
2018-06-09T01:00:40.316Z,100456.12
2018-06-09T01:03:13.683Z,100459.44
2018-06-09T01:05:47.090Z,100454.26
2018-06-09T01:08:20.472Z,100453.14
2018-06-09T01:10:53.873Z,100453.61
2018-06-09T01:13:27.288Z,100451.95
2018-06-09T01:16:00.687Z,100451.48
2018-06-09T01:18:34.085Z,100455.01
2018-06-09T01:21:07.489Z,100460.66
2018-06-09T01:23:40.910Z,100458.71
2018-06-09T01:26:14.327Z,100455.66
2018-06-09T01:28:47.715Z,100457.09
2018-06-09T01:31:21.125Z,100461.98
2018-06-09T01:33:54.520Z,100463.46
2018-06-09T01:36:27.919Z,100469.28
2018-06-09T01:39:01.320Z,100469.75
2018-06-09T01:41:34.748Z,100457.37
2018-06-09T01:44:08.126Z,100465.05
2018-06-09T01:46:41.516Z,100463.93
2018-06-09T01:49:14.896Z,100467.63
2018-06-09T01:51:48.288Z,100463.84
2018-06-09T01:54:21.668Z,100462.73
2018-06-09T01:56:55.064Z,100459.84
2018-06-09T01:59:28.546Z,100450.59
2018-06-09T02:02:01.984Z,100456.89
2018-06-09T02:04:35.363Z,100457.34
2018-06-09T02:07:08.780Z,100454.11
2018-06-09T02:09:42.164Z,100457.87
2018-06-09T02:12:15.572Z,100455.92
2018-06-09T02:14:49.006Z,100448.23
2018-06-09T02:17:22.439Z,100442.86
2018-06-09T02:19:55.861Z,100442.60
2018-06-09T02:22:29.255Z,100438.49
2018-06-09T02:25:02.641Z,100439.13
2018-06-09T02:27:36.068Z,100444.52
2018-06-09T02:30:09.456Z,100439.11
2018-06-09T02:32:42.901Z,100449.10
2018-06-09T02:35:16.281Z,100445.49
2018-06-09T02:37:49.683Z,100443.90
2018-06-09T02:40:23.095Z,100447.30
2018-06-09T02:42:56.658Z,100450.15
2018-06-09T02:45:30.051Z,100454.73
2018-06-09T02:48:03.474Z,100448.83
2018-06-09T02:50:36.874Z,100446.70
2018-06-09T02:53:10.297Z,100449.69
2018-06-09T02:55:43.681Z,100451.91
2018-06-09T02:58:17.100Z,100456.79
2018-06-09T03:00:51.032Z,100451.81
2018-06-09T03:03:24.488Z,100448.37
2018-06-09T03:05:57.908Z,100447.17
2018-06-09T03:08:31.580Z,100443.83
2018-06-09T03:11:04.978Z,100450.86
2018-06-09T03:13:38.417Z,100443.26
2018-06-09T03:16:11.799Z,100442.23
2018-06-09T03:18:45.198Z,100438.42
2018-06-09T03:21:18.575Z,100438.81
2018-06-09T03:23:52.027Z,100442.30
2018-06-09T03:26:25.473Z,100440.94
2018-06-09T03:28:58.918Z,100442.43
2018-06-09T03:31:32.501Z,100439.55
2018-06-09T03:34:05.928Z,100435.03
2018-06-09T03:36:39.317Z,100435.14
2018-06-09T03:39:12.769Z,100436.16
2018-06-09T03:41:46.146Z,100430.27
2018-06-09T03:44:19.563Z,100433.08
2018-06-09T03:46:52.967Z,100433.14
2018-06-09T03:49:26.404Z,100434.92
2018-06-09T03:51:59.808Z,100437.97
2018-06-09T03:54:33.215Z,100431.16
2018-06-09T03:57:06.608Z,100436.06
2018-06-09T03:59:40.023Z,100436.35
2018-06-09T04:02:13.541Z,100433.14
2018-06-09T04:04:47.015Z,100438.64
2018-06-09T04:07:20.508Z,100432.36
2018-06-09T04:09:53.941Z,100432.94
2018-06-09T04:12:27.362Z,100440.06
2018-06-09T04:15:00.764Z,100445.97
2018-06-09T04:17:34.159Z,100443.16
2018-06-09T04:20:07.542Z,100446.23
2018-06-09T04:22:41.025Z,100452.31
2018-06-09T04:25:14.437Z,100442.97
2018-06-09T04:27:47.830Z,100441.09
2018-06-09T04:30:21.198Z,100439.89
2018-06-09T04:32:54.594Z,100438.11
2018-06-09T04:35:29.769Z,100441.51
2018-06-09T04:38:03.185Z,100446.43
2018-06-09T04:40:38.323Z,100442.78
2018-06-09T04:43:12.862Z,100443.70
2018-06-09T04:45:46.270Z,100440.92
2018-06-09T04:48:19.676Z,100445.59
2018-06-09T04:50:53.133Z,100438.22
2018-06-09T04:53:26.530Z,100447.41
2018-06-09T04:55:59.981Z,100439.34
2018-06-09T04:58:33.395Z,100436.05
2018-06-09T05:01:06.785Z,100438.69
2018-06-09T05:03:40.204Z,100442.09
2018-06-09T05:06:13.626Z,100435.60
2018-06-09T05:08:47.052Z,100443.08
2018-06-09T05:11:20.435Z,100439.47
2018-06-09T05:13:53.871Z,100436.95
2018-06-09T05:16:27.273Z,100439.47
2018-06-09T05:19:01.529Z,100431.68
2018-06-09T05:21:34.900Z,100432.23
2018-06-09T05:24:08.493Z,100432.34
2018-06-09T05:26:41.868Z,100436.41
2018-06-09T05:29:15.272Z,100435.16
2018-06-09T05:31:48.667Z,100435.31
2018-06-09T05:34:22.054Z,100435.03
2018-06-09T05:36:55.453Z,100435.47
2018-06-09T05:39:28.871Z,100437.08
2018-06-09T05:42:02.246Z,100439.44
2018-06-09T05:44:35.651Z,100446.00
2018-06-09T05:47:09.028Z,100444.78
2018-06-09T05:49:42.428Z,100443.13
2018-06-09T05:52:15.799Z,100441.16
2018-06-09T05:54:49.187Z,100438.25
2018-06-09T05:57:22.578Z,100447.61
2018-06-09T05:59:56.005Z,100452.89
2018-06-09T06:02:29.388Z,100455.53
2018-06-09T06:05:02.801Z,100457.81
2018-06-09T06:07:36.196Z,100459.16
2018-06-09T06:10:09.613Z,100455.41
2018-06-09T06:12:43.032Z,100467.53
2018-06-09T06:15:16.462Z,100461.78
2018-06-09T06:17:49.868Z,100455.69
2018-06-09T06:20:23.363Z,100468.55
2018-06-09T06:22:57.274Z,100469.32
2018-06-09T06:25:30.685Z,100462.86
2018-06-09T06:28:04.095Z,100457.37
2018-06-09T06:30:37.479Z,100457.50
2018-06-09T06:33:10.885Z,100464.19
2018-06-09T06:35:44.301Z,100460.52
2018-06-09T06:38:17.706Z,100459.19
2018-06-09T06:40:51.112Z,100463.13
2018-06-09T06:43:24.576Z,100465.48
2018-06-09T06:45:57.991Z,100467.61
2018-06-09T06:48:31.393Z,100467.46
2018-06-09T06:51:04.848Z,100471.69
2018-06-09T06:53:38.258Z,100468.30
2018-06-09T06:56:11.683Z,100468.57
2018-06-09T06:58:45.155Z,100471.56
2018-06-09T07:01:18.619Z,100472.24
2018-06-09T07:03:52.008Z,100478.95
2018-06-09T07:06:25.479Z,100484.54
2018-06-09T07:08:58.849Z,100493.35
2018-06-09T07:11:32.549Z,100499.33
2018-06-09T07:14:06.023Z,100493.07
2018-06-09T07:16:39.660Z,100496.02
2018-06-09T07:19:13.368Z,100500.88
2018-06-09T07:21:46.807Z,100492.43
2018-06-09T07:24:20.231Z,100491.63
2018-06-09T07:26:53.648Z,100491.70
2018-06-09T07:29:27.079Z,100492.34
2018-06-09T07:32:00.524Z,100498.50
2018-06-09T07:34:34.496Z,100500.79
2018-06-09T07:37:08.167Z,100499.80
2018-06-09T07:39:42.007Z,100502.36
2018-06-09T07:42:15.836Z,100503.47
2018-06-09T07:44:49.297Z,100503.73
2018-06-09T07:47:22.699Z,100505.38
2018-06-09T07:49:56.145Z,100502.06
2018-06-09T07:52:29.547Z,100502.18
2018-06-09T07:55:02.929Z,100504.05
2018-06-09T07:57:36.303Z,100494.74
2018-06-09T08:00:09.738Z,100497.45
2018-06-09T08:02:43.133Z,100497.67
2018-06-09T08:05:16.556Z,100491.94
2018-06-09T08:07:49.936Z,100487.27
2018-06-09T08:10:23.340Z,100480.14
2018-06-09T08:12:56.808Z,100483.55
2018-06-09T08:15:30.238Z,100487.59
2018-06-09T08:18:03.614Z,100495.78
2018-06-09T08:20:37.054Z,100491.51
2018-06-09T08:23:10.441Z,100489.97
2018-06-09T08:25:43.846Z,100487.14
2018-06-09T08:28:17.241Z,100485.60
2018-06-09T08:30:50.638Z,100493.50
2018-06-09T08:33:24.070Z,100488.31
2018-06-09T08:35:57.773Z,100485.20
2018-06-09T08:38:31.137Z,100483.38
2018-06-09T08:41:04.547Z,100482.56
2018-06-09T08:43:37.916Z,100480.42
2018-06-09T08:46:11.335Z,100485.41
2018-06-09T08:48:44.722Z,100484.39
2018-06-09T08:51:18.101Z,100472.56
2018-06-09T08:53:51.532Z,100472.91
2018-06-09T08:56:24.944Z,100482.86
2018-06-09T08:58:58.314Z,100479.98
2018-06-09T09:01:31.719Z,100482.53
2018-06-09T09:04:05.085Z,100485.22
2018-06-09T09:06:38.563Z,100486.27
2018-06-09T09:09:11.996Z,100482.41
2018-06-09T09:11:45.420Z,100479.77
2018-06-09T09:14:18.831Z,100486.18
2018-06-09T09:16:52.239Z,100479.77
2018-06-09T09:19:25.626Z,100482.23
2018-06-09T09:21:59.056Z,100476.28
2018-06-09T09:24:32.430Z,100473.85
2018-06-09T09:27:05.847Z,100477.19
2018-06-09T09:29:39.244Z,100477.72
2018-06-09T09:32:12.722Z,100473.36
2018-06-09T09:34:46.081Z,100472.05
2018-06-09T09:37:19.517Z,100472.78
2018-06-09T09:39:52.903Z,100467.37
2018-06-09T09:42:26.960Z,100475.45
2018-06-09T09:45:00.346Z,100472.79
2018-06-09T09:47:33.765Z,100471.50
2018-06-09T09:50:07.130Z,100468.74
2018-06-09T09:52:40.526Z,100465.30
2018-06-09T09:55:13.905Z,100465.63
2018-06-09T09:57:55.780Z,100466.96
2018-06-09T10:00:34.383Z,100466.84
2018-06-09T10:03:07.828Z,100465.22
2018-06-09T10:05:41.208Z,100469.39
2018-06-09T10:08:14.616Z,100468.58
2018-06-09T10:10:48.053Z,100467.62
2018-06-09T10:13:21.501Z,100469.44
2018-06-09T10:15:54.921Z,100457.93
2018-06-09T10:18:28.331Z,100452.66
2018-06-09T10:21:01.721Z,100451.16
2018-06-09T10:23:35.133Z,100452.98
2018-06-09T10:26:08.635Z,100447.06
2018-06-09T10:28:42.049Z,100446.06
2018-06-09T10:31:15.418Z,100448.55
2018-06-09T10:33:48.815Z,100443.77
2018-06-09T10:36:22.175Z,100439.97
2018-06-09T10:38:55.614Z,100436.50
2018-06-09T10:41:29.013Z,100436.19
2018-06-09T10:44:02.380Z,100435.52
2018-06-09T10:46:35.826Z,100438.20
2018-06-09T10:49:09.220Z,100429.95
2018-06-09T10:51:42.608Z,100424.02
2018-06-09T10:54:15.983Z,100427.59
2018-06-09T10:56:49.412Z,100424.45
2018-06-09T10:59:22.820Z,100420.29
2018-06-09T11:01:56.258Z,100415.39
2018-06-09T11:04:29.633Z,100415.34
2018-06-09T11:07:03.060Z,100417.30
2018-06-09T11:09:36.439Z,100419.25
2018-06-09T11:12:09.873Z,100422.36
2018-06-09T11:14:43.300Z,100412.90
2018-06-09T11:17:16.802Z,100410.66
2018-06-09T11:19:50.192Z,100405.72
2018-06-09T11:22:23.609Z,100401.72
2018-06-09T11:24:57.072Z,100404.39
2018-06-09T11:27:30.487Z,100404.77
2018-06-09T11:30:03.915Z,100404.87
2018-06-09T11:32:37.310Z,100401.28
2018-06-09T11:35:10.707Z,100401.97
2018-06-09T11:37:44.103Z,100402.92
2018-06-09T11:40:17.497Z,100394.05
2018-06-09T11:42:50.917Z,100392.78
2018-06-09T11:45:24.304Z,100393.98
2018-06-09T11:47:57.774Z,100394.95
2018-06-09T11:50:31.150Z,100381.27
2018-06-09T11:53:11.284Z,100377.61
2018-06-09T11:55:44.696Z,100379.55
2018-06-09T11:58:18.132Z,100367.54
2018-06-09T12:00:51.541Z,100374.50
2018-06-09T12:03:25.016Z,100361.55
2018-06-09T12:05:58.413Z,100356.22
2018-06-09T12:08:31.828Z,100353.80
2018-06-09T12:11:05.288Z,100365.80
2018-06-09T12:13:38.735Z,100359.55
2018-06-09T12:16:12.124Z,100357.09
2018-06-09T12:18:45.568Z,100352.53
2018-06-09T12:21:18.950Z,100348.68
2018-06-09T12:23:52.430Z,100344.73
2018-06-09T12:26:25.841Z,100344.98
2018-06-09T12:28:59.272Z,100338.92
2018-06-09T12:31:32.689Z,100338.58
2018-06-09T12:34:06.083Z,100336.44
2018-06-09T12:36:39.546Z,100341.87
2018-06-09T12:39:12.975Z,100336.86
2018-06-09T12:41:46.363Z,100336.91
2018-06-09T12:44:19.788Z,100334.97
2018-06-09T12:46:53.174Z,100334.66
2018-06-09T12:49:26.594Z,100329.42
2018-06-09T12:51:59.996Z,100336.42
2018-06-09T12:54:33.447Z,100325.16
2018-06-09T12:57:06.832Z,100323.36
2018-06-09T12:59:40.295Z,100320.16
2018-06-09T13:02:13.683Z,100314.20
2018-06-09T13:04:47.107Z,100308.92
2018-06-09T13:07:20.499Z,100308.74
2018-06-09T13:09:53.941Z,100309.05
2018-06-09T13:12:27.510Z,100303.76
2018-06-09T13:15:01.000Z,100300.24
2018-06-09T13:17:34.416Z,100294.08
2018-06-09T13:20:07.850Z,100286.42
2018-06-09T13:22:41.269Z,100289.34
2018-06-09T13:25:14.670Z,100289.19
2018-06-09T13:27:48.073Z,100287.22
2018-06-09T13:30:21.526Z,100282.22
2018-06-09T13:32:54.895Z,100275.25
2018-06-09T13:35:28.305Z,100273.48
2018-06-09T13:38:01.710Z,100279.33
2018-06-09T13:40:35.119Z,100277.81
2018-06-09T13:43:08.504Z,100280.44
2018-06-09T13:45:41.916Z,100279.83
2018-06-09T13:48:15.324Z,100276.44
2018-06-09T13:50:48.772Z,100277.20
2018-06-09T13:53:22.172Z,100272.32
2018-06-09T13:55:55.592Z,100276.59
2018-06-09T13:58:28.961Z,100266.08
2018-06-09T14:01:02.370Z,100274.30
2018-06-09T14:03:35.819Z,100270.91
2018-06-09T14:06:09.267Z,100272.38
2018-06-09T14:08:42.670Z,100279.80
2018-06-09T14:11:16.074Z,100278.11
2018-06-09T14:13:49.500Z,100273.50
2018-06-09T14:16:22.935Z,100266.97
2018-06-09T14:18:56.400Z,100256.67
2018-06-09T14:21:29.806Z,100252.40
2018-06-09T14:24:03.278Z,100255.83
2018-06-09T14:26:36.797Z,100255.33
2018-06-09T14:29:10.252Z,100254.20
2018-06-09T14:31:43.644Z,100262.44
2018-06-09T14:34:17.080Z,100250.86
2018-06-09T14:36:50.486Z,100253.81
2018-06-09T14:39:23.958Z,100253.27
2018-06-09T14:41:57.575Z,100251.73
2018-06-09T14:44:30.989Z,100246.14
2018-06-09T14:47:04.431Z,100245.20
2018-06-09T14:49:37.871Z,100243.92
2018-06-09T14:52:11.265Z,100245.64
2018-06-09T14:54:44.697Z,100245.84
2018-06-09T14:57:18.086Z,100243.56
2018-06-09T14:59:51.560Z,100244.81
2018-06-09T15:02:24.985Z,100242.80
2018-06-09T15:04:58.375Z,100239.19
2018-06-09T15:07:31.768Z,100241.00
2018-06-09T15:10:05.218Z,100240.97
2018-06-09T15:12:38.619Z,100236.53
2018-06-09T15:15:12.063Z,100232.64
2018-06-09T15:17:46.255Z,100235.84
2018-06-09T15:20:19.691Z,100239.47
2018-06-09T15:22:56.434Z,100230.94
2018-06-09T15:25:30.361Z,100232.20
2018-06-09T15:28:03.818Z,100240.09
2018-06-09T15:30:38.638Z,100241.73
2018-06-09T15:33:12.183Z,100237.47
2018-06-09T15:35:45.707Z,100242.09
2018-06-09T15:38:19.185Z,100238.08
2018-06-09T15:40:52.723Z,100238.98
2018-06-09T15:43:26.180Z,100231.62
2018-06-09T15:45:59.606Z,100235.59
2018-06-09T15:48:33.079Z,100237.84
2018-06-09T15:51:06.572Z,100234.40
2018-06-09T15:53:39.976Z,100232.70
2018-06-09T15:56:13.384Z,100235.25
2018-06-09T15:58:46.798Z,100231.23
2018-06-09T16:01:20.253Z,100235.84
2018-06-09T16:03:53.634Z,100231.61
2018-06-09T16:06:27.602Z,100225.83
2018-06-09T16:09:01.332Z,100229.28
2018-06-09T16:11:35.049Z,100229.00
2018-06-09T16:14:09.204Z,100233.77
2018-06-09T16:16:43.574Z,100224.11
2018-06-09T16:19:17.929Z,100226.20
2018-06-09T16:21:51.361Z,100229.22
2018-06-09T16:24:24.952Z,100226.92
2018-06-09T16:26:58.562Z,100227.75
2018-06-09T16:29:32.456Z,100228.14
2018-06-09T16:32:06.091Z,100233.11
2018-06-09T16:34:39.584Z,100229.83
2018-06-09T16:37:15.631Z,100229.83
2018-06-09T16:39:50.844Z,100230.81
2018-06-09T16:42:24.525Z,100234.80
2018-06-09T16:44:58.068Z,100226.71
2018-06-09T16:47:31.666Z,100232.81
2018-06-09T16:50:05.302Z,100221.13
2018-06-09T16:52:38.915Z,100230.45
2018-06-09T16:55:12.535Z,100235.67
2018-06-09T16:57:45.912Z,100231.04
2018-06-09T17:00:19.283Z,100228.89
2018-06-09T17:02:52.723Z,100230.97
2018-06-09T17:05:26.153Z,100233.58
2018-06-09T17:07:59.576Z,100239.93
2018-06-09T17:10:32.947Z,100246.08
2018-06-09T17:13:06.336Z,100243.36
2018-06-09T17:15:39.761Z,100241.72
2018-06-09T17:18:13.161Z,100239.09
2018-06-09T17:20:46.586Z,100241.41
2018-06-09T17:23:19.956Z,100244.68
2018-06-09T17:25:53.370Z,100240.27
2018-06-09T17:28:26.812Z,100236.47
2018-06-09T17:31:00.218Z,100244.03
2018-06-09T17:33:33.612Z,100244.66
2018-06-09T17:36:07.028Z,100244.64
2018-06-09T17:38:40.421Z,100253.98
2018-06-09T17:41:13.853Z,100253.11
2018-06-09T17:43:47.237Z,100249.97
2018-06-09T17:46:20.651Z,100251.77
2018-06-09T17:48:54.217Z,100249.07
2018-06-09T17:51:27.640Z,100252.93
2018-06-09T17:54:01.046Z,100251.27
2018-06-09T17:56:35.047Z,100250.85
2018-06-09T17:59:08.572Z,100253.62
2018-06-09T18:01:41.962Z,100251.09
2018-06-09T18:04:15.346Z,100244.47
2018-06-09T18:06:48.758Z,100244.77
2018-06-09T18:09:22.142Z,100240.50
2018-06-09T18:11:55.544Z,100249.39
2018-06-09T18:14:28.948Z,100250.22
2018-06-09T18:17:02.368Z,100249.86
2018-06-09T18:19:35.814Z,100255.43
2018-06-09T18:22:10.333Z,100262.42
2018-06-09T18:24:43.721Z,100261.77
2018-06-09T18:27:17.123Z,100262.98
2018-06-09T18:29:50.496Z,100271.80
2018-06-09T18:32:23.899Z,100267.13
2018-06-09T18:34:57.340Z,100263.16
2018-06-09T18:37:30.744Z,100265.45
2018-06-09T18:40:04.178Z,100263.81
2018-06-09T18:42:37.732Z,100266.08
2018-06-09T18:45:11.174Z,100270.14
2018-06-09T18:47:44.588Z,100275.38
2018-06-09T18:50:17.986Z,100269.28
2018-06-09T18:52:51.404Z,100272.11
2018-06-09T18:55:24.787Z,100276.23
2018-06-09T18:57:58.189Z,100277.22
2018-06-09T19:00:31.583Z,100274.41
2018-06-09T19:03:05.010Z,100276.74
2018-06-09T19:05:38.469Z,100273.39
2018-06-09T19:08:11.890Z,100277.61
2018-06-09T19:10:45.296Z,100278.19
2018-06-09T19:13:18.729Z,100281.74
2018-06-09T19:15:52.128Z,100279.12
2018-06-09T19:18:25.576Z,100281.37
2018-06-09T19:20:58.999Z,100277.47
2018-06-09T19:23:32.433Z,100266.24
2018-06-09T19:26:05.844Z,100266.97
2018-06-09T19:28:39.273Z,100267.48
2018-06-09T19:31:12.684Z,100262.20
2018-06-09T19:33:46.108Z,100263.56
2018-06-09T19:36:19.517Z,100264.90
2018-06-09T19:38:52.957Z,100264.84
2018-06-09T19:41:26.466Z,100270.91
2018-06-09T19:43:59.875Z,100274.44
2018-06-09T19:46:33.280Z,100278.30
2018-06-09T19:49:06.701Z,100278.48
2018-06-09T19:51:40.333Z,100280.16
2018-06-09T19:54:15.637Z,100279.80
2018-06-09T19:56:49.784Z,100280.98
2018-06-09T19:59:24.239Z,100283.28
2018-06-09T20:01:57.956Z,100281.69
2018-06-09T20:04:31.463Z,100285.80
2018-06-09T20:07:04.884Z,100291.90
2018-06-09T20:09:38.316Z,100296.23
2018-06-09T20:12:12.359Z,100298.29
2018-06-09T20:14:46.688Z,100300.20
2018-06-09T20:17:20.092Z,100302.13
2018-06-09T20:19:53.778Z,100305.31
2018-06-09T20:22:27.752Z,100301.87
2018-06-09T20:25:01.307Z,100307.03
2018-06-09T20:27:34.716Z,100303.89
2018-06-09T20:30:08.118Z,100306.77
2018-06-09T20:32:41.619Z,100305.37
2018-06-09T20:35:16.284Z,100319.05
2018-06-09T20:37:49.959Z,100314.70
2018-06-09T20:40:23.779Z,100311.05
2018-06-09T20:42:58.239Z,100307.05
2018-06-09T20:45:31.930Z,100316.05
2018-06-09T20:48:06.508Z,100314.97
2018-06-09T20:50:39.958Z,100319.59
2018-06-09T20:53:13.371Z,100322.55
2018-06-09T20:55:46.766Z,100323.23
2018-06-09T20:58:20.313Z,100321.73
2018-06-09T21:00:53.757Z,100322.67
2018-06-09T21:03:28.135Z,100321.78
2018-06-09T21:06:02.568Z,100326.75
2018-06-09T21:08:36.424Z,100321.74
2018-06-09T21:11:10.157Z,100332.54
2018-06-09T21:13:44.676Z,100336.23
2018-06-09T21:16:18.632Z,100340.31
2018-06-09T21:18:52.853Z,100336.30
2018-06-09T21:21:29.473Z,100329.55
2018-06-09T21:24:03.382Z,100324.95
2018-06-09T21:26:42.572Z,100332.34
2018-06-09T21:29:21.925Z,100332.48
2018-06-09T21:31:56.165Z,100330.50
2018-06-09T21:34:46.369Z,100328.55
2018-06-09T21:37:25.498Z,100325.14
2018-06-09T21:40:05.524Z,100324.77
2018-06-09T21:42:44.624Z,100322.08
2018-06-09T21:45:28.483Z,100324.12
2018-06-09T21:48:02.191Z,100325.34
2018-06-09T21:50:36.389Z,100325.84
2018-06-09T21:53:09.857Z,100317.58
2018-06-09T21:55:43.340Z,100321.05
2018-06-09T21:58:16.745Z,100322.03
2018-06-09T22:00:50.147Z,100316.72
2018-06-09T22:03:23.626Z,100322.19
2018-06-09T22:05:57.548Z,100321.62
2018-06-09T22:08:31.292Z,100325.58
2018-06-09T22:11:04.759Z,100318.25
2018-06-09T22:13:38.183Z,100320.14
2018-06-09T22:16:11.624Z,100315.06
2018-06-09T22:18:45.386Z,100311.05
2018-06-09T22:21:18.804Z,100310.45
2018-06-09T22:23:52.178Z,100310.80
2018-06-09T22:26:25.609Z,100310.36
2018-06-09T22:28:58.999Z,100305.86
2018-06-09T22:31:32.400Z,100301.23
2018-06-09T22:34:05.989Z,100298.77
2018-06-09T22:36:39.593Z,100303.27
2018-06-09T22:39:13.105Z,100295.20
2018-06-09T22:41:46.782Z,100292.11
2018-06-09T22:44:20.231Z,100294.52
2018-06-09T22:46:53.728Z,100289.55
2018-06-09T22:49:27.123Z,100287.77
2018-06-09T22:52:00.529Z,100288.16
2018-06-09T22:54:33.903Z,100285.55
2018-06-09T22:57:07.332Z,100279.17
2018-06-09T22:59:40.712Z,100275.55
2018-06-09T23:02:14.169Z,100274.63
2018-06-09T23:04:47.519Z,100279.49
2018-06-09T23:07:20.933Z,100273.91
2018-06-09T23:09:54.331Z,100279.59
2018-06-09T23:12:27.775Z,100274.52
2018-06-09T23:15:01.220Z,100272.41
2018-06-09T23:17:34.584Z,100261.74
2018-06-09T23:20:08.012Z,100263.89
2018-06-09T23:22:41.408Z,100255.15
2018-06-09T23:25:14.792Z,100253.26
2018-06-09T23:27:48.186Z,100255.72
2018-06-09T23:30:21.576Z,100256.22
2018-06-09T23:32:55.157Z,100256.93
2018-06-09T23:35:28.559Z,100247.80
2018-06-09T23:38:01.930Z,100244.26
2018-06-09T23:40:35.404Z,100247.92
2018-06-09T23:43:08.802Z,100238.55
2018-06-09T23:45:42.208Z,100234.38
2018-06-09T23:48:15.770Z,100245.40
2018-06-09T23:50:49.189Z,100242.55
2018-06-09T23:53:22.631Z,100241.23
2018-06-09T23:55:56.103Z,100236.52
2018-06-09T23:58:29.466Z,100242.64
